Time;durP1;ratioP1;P1;durP2;ratioP2;P2;SDS_P1;SDS_P2;PMS_P1;PMS_P2;Temp;Humidity;BMP_temperature;BMP_pressure;BME280_temperature;BME280_humidity;BME280_pressure;Samples;Min_cycle;Max_cycle;Signal;HPM_P1;HPM_P2
2024/02/18 00:02:23;;;;;;;22.40;6.68;;;0.40;99.90;;;-1.21;99.87;102967.91;5023468;28;20117;-81
2024/02/18 00:04:49;;;;;;;25.92;7.60;;;0.40;99.90;;;-1.20;100.00;102967.13;4992768;28;20476;-81
2024/02/18 00:07:15;;;;;;;22.83;6.20;;;0.40;99.90;;;-1.17;100.00;102972.38;5007693;28;20022;-81
2024/02/18 00:09:41;;;;;;;24.27;6.40;;;0.40;99.90;;;-1.16;100.00;102966.41;5009254;28;20053;-81
2024/02/18 00:12:09;;;;;;;27.67;6.15;;;0.50;99.90;;;-1.15;100.00;102964.69;4994479;28;20026;-81
2024/02/18 00:14:35;;;;;;;29.40;6.00;;;0.50;99.90;;;-1.17;100.00;102967.22;5007986;28;20034;-81
2024/02/18 00:17:01;;;;;;;28.35;6.20;;;0.50;99.90;;;-1.18;100.00;102965.47;5005842;28;20530;-79
2024/02/18 00:19:26;;;;;;;34.85;8.93;;;0.40;99.90;;;-1.20;100.00;102969.69;5006217;28;20113;-81
2024/02/18 00:21:52;;;;;;;32.22;7.68;;;0.40;99.90;;;-1.22;100.00;102966.19;5007052;28;20495;-81
2024/02/18 00:24:18;;;;;;;23.35;5.72;;;0.40;99.90;;;-1.29;100.00;102964.19;5023932;28;20083;-80
2024/02/18 00:26:50;;;;;;;55.72;8.80;;;0.30;99.90;;;-1.32;100.00;102966.63;4992016;28;21270;-80
2024/02/18 00:29:16;;;;;;;23.55;6.10;;;0.30;99.90;;;-1.35;100.00;102963.94;5008476;28;20034;-81
2024/02/18 00:31:42;;;;;;;33.30;6.68;;;0.30;99.90;;;-1.40;100.00;102957.72;5005920;28;20683;-80
2024/02/18 00:34:07;;;;;;;38.38;7.68;;;0.20;99.90;;;-1.41;100.00;102955.97;5007293;28;20034;-80
2024/02/18 00:36:33;;;;;;;21.20;7.72;;;0.20;99.90;;;-1.41;100.00;102955.97;5022338;28;20488;-81
2024/02/18 00:38:59;;;;;;;40.05;9.35;;;0.20;99.90;;;-1.38;100.00;102948.31;5007352;28;20121;-81
2024/02/18 00:41:30;;;;;;;26.73;9.30;;;0.30;99.90;;;-1.33;99.88;102944.22;5005126;28;20533;-79
2024/02/18 00:43:56;;;;;;;89.50;10.05;;;0.30;99.90;;;-1.32;99.97;102948.53;5007243;28;20038;-81
2024/02/18 00:46:21;;;;;;;61.65;9.73;;;0.30;99.90;;;-1.31;100.00;102950.31;4989974;28;20032;-81
2024/02/18 00:48:47;;;;;;;99.50;12.90;;;0.30;99.90;;;-1.30;100.00;102952.06;5007800;28;20109;-81
2024/02/18 00:51:13;;;;;;;98.03;12.18;;;0.30;99.90;;;-1.28;100.00;102950.44;4998227;28;20025;-80
2024/02/18 00:53:39;;;;;;;92.82;9.40;;;0.30;99.90;;;-1.27;100.00;102936.69;5001786;28;20030;-81
2024/02/18 00:56:11;;;;;;;88.20;9.38;;;0.30;99.90;;;-1.27;100.00;102935.00;5007844;28;20041;-80
2024/02/18 00:58:37;;;;;;;81.55;7.07;;;0.30;99.90;;;-1.29;100.00;102944.38;5006687;28;20044;-81
2024/02/18 01:01:03;;;;;;;90.70;7.05;;;0.30;99.90;;;-1.35;100.00;102933.81;5007804;28;20045;-80
2024/02/18 01:03:29;;;;;;;97.60;16.88;;;0.30;99.90;;;-1.38;100.00;102927.63;5002355;28;20431;-81
2024/02/18 01:05:55;;;;;;;81.60;19.85;;;0.20;99.90;;;-1.43;100.00;102924.88;5006697;28;20083;-80
2024/02/18 01:08:25;;;;;;;95.90;27.13;;;0.20;99.90;;;-1.46;100.00;102919.59;5006375;28;20047;-81
2024/02/18 01:10:51;;;;;;;55.28;11.35;;;0.20;99.90;;;-1.50;100.00;102922.91;5009253;28;20045;-81
2024/02/18 01:13:17;;;;;;;53.92;14.65;;;0.10;99.90;;;-1.51;100.00;102927.19;5006345;28;20034;-81
2024/02/18 01:15:42;;;;;;;26.48;13.32;;;0.10;99.90;;;-1.52;100.00;102933.16;5012410;28;20124;-80
2024/02/18 01:18:08;;;;;;;105.68;7.85;;;0.10;99.90;;;-1.51;100.00;102927.19;5006634;28;20034;-81
2024/02/18 01:20:34;;;;;;;47.00;6.00;;;0.10;99.90;;;-1.52;100.00;102930.56;5006846;28;20095;-80
2024/02/18 01:23:05;;;;;;;64.70;7.13;;;0.10;99.90;;;-1.52;100.00;102933.16;4996346;28;20042;-81
2024/02/18 01:25:31;;;;;;;132.32;9.73;;;0.10;99.90;;;-1.53;100.00;102921.06;5007602;28;20018;-80
2024/02/18 01:27:56;;;;;;;21.70;6.13;;;0.10;99.90;;;-1.54;100.00;102932.22;4989240;28;20145;-81
2024/02/18 01:30:22;;;;;;;26.75;8.05;;;0.10;99.90;;;-1.55;100.00;102929.59;5012803;28;20079;-80
2024/02/18 01:32:48;;;;;;;88.50;8.05;;;0.00;99.90;;;-1.58;100.00;102919.13;4996116;28;20041;-82
2024/02/18 01:35:14;;;;;;;43.15;6.93;;;0.00;99.90;;;-1.62;100.00;102915.56;4994026;28;20493;-80
2024/02/18 01:37:42;;;;;;;25.50;5.53;;;0.00;99.90;;;-1.65;100.00;102925.75;4995969;28;20765;-82
2024/02/18 01:40:09;;;;;;;13.57;4.65;;;0.00;99.90;;;-1.74;100.00;102922.81;4997729;28;20033;-82
2024/02/18 01:42:40;;;;;;;14.65;4.85;;;-0.10;99.90;;;-1.84;100.00;102929.31;5007511;28;20033;-81
2024/02/18 01:45:08;;;;;;;12.25;5.80;;;-0.20;99.90;;;-1.91;100.00;102924.75;4990651;28;20038;-82
2024/02/18 01:47:40;;;;;;;22.55;6.13;;;-0.30;99.90;;;-1.93;100.00;102926.38;5004895;28;20159;-81
2024/02/18 01:50:08;;;;;;;37.45;6.85;;;-0.30;99.90;;;-1.94;100.00;102920.34;5004283;28;20049;-82
2024/02/18 01:52:45;;;;;;;39.70;7.43;;;-0.30;99.90;;;-1.95;100.00;102918.56;5006131;28;20045;-81
2024/02/18 01:55:12;;;;;;;18.98;6.22;;;-0.30;99.90;;;-1.95;100.00;102915.97;5008070;28;20061;-82
2024/02/18 01:57:47;;;;;;;22.75;6.38;;;-0.30;99.90;;;-1.95;100.00;102917.69;4996136;28;20717;-82
2024/02/18 02:00:17;;;;;;;31.15;6.57;;;-0.30;99.90;;;-1.95;100.00;102917.69;5009777;28;20041;-81
2024/02/18 02:02:49;;;;;;;24.13;7.22;;;-0.30;99.90;;;-1.94;100.00;102910.00;5007127;28;20037;-81
2024/02/18 02:05:20;;;;;;;38.10;7.07;;;-0.30;99.90;;;-1.96;100.00;102919.41;5013562;28;20029;-81
2024/02/18 02:07:58;;;;;;;28.08;7.28;;;-0.30;99.90;;;-1.98;100.00;102926.19;4987534;28;20029;-82
2024/02/18 02:10:24;;;;;;;49.92;7.45;;;-0.40;99.90;;;-2.03;100.00;102925.16;5006939;28;20052;-81
2024/02/18 02:12:49;;;;;;;67.97;8.20;;;-0.40;99.90;;;-2.03;100.00;102921.66;5005244;28;20041;-82
2024/02/18 02:15:16;;;;;;;32.85;7.10;;;-0.30;99.90;;;-2.01;100.00;102926.06;4988706;28;20038;-82
2024/02/18 02:17:49;;;;;;;37.78;7.00;;;-0.40;99.90;;;-2.02;100.00;102913.97;5007107;28;20026;-81
2024/02/18 02:20:15;;;;;;;17.15;6.95;;;-0.40;99.90;;;-2.00;100.00;102921.78;4988882;28;20041;-82
2024/02/18 02:22:41;;;;;;;57.13;7.00;;;-0.40;99.90;;;-2.01;100.00;102927.75;5008195;28;20025;-82
2024/02/18 02:25:14;;;;;;;52.13;7.10;;;-0.40;99.90;;;-2.00;100.00;102920.09;5004494;28;20041;-82
2024/02/18 02:27:58;;;;;;;;;;;;;;;;;;;;;
2024/02/18 02:30:24;;;;;;;26.77;6.03;;;-0.30;99.90;;;-1.99;100.00;102910.63;5005971;28;20518;-81
2024/02/18 02:32:50;;;;;;;61.90;5.20;;;-0.30;99.90;;;-1.96;100.00;102910.78;5006953;28;20116;-81
2024/02/18 02:35:21;;;;;;;44.38;5.35;;;-0.30;99.90;;;-1.91;100.00;102912.69;5005028;28;20470;-82
2024/02/18 02:37:48;;;;;;;65.80;6.25;;;-0.20;99.90;;;-1.84;100.00;102902.63;5006900;28;20031;-82
2024/02/18 02:40:13;;;;;;;74.53;6.82;;;-0.20;99.90;;;-1.82;100.00;102906.16;5004063;28;20030;-80
2024/02/18 02:42:39;;;;;;;32.15;5.18;;;-0.20;99.90;;;-1.80;100.00;102899.34;5010428;28;20044;-82
2024/02/18 02:45:06;;;;;;;77.22;5.88;;;-0.20;99.90;;;-1.78;100.00;102902.88;5003751;28;20041;-82
2024/02/18 02:47:32;;;;;;;30.23;5.28;;;-0.20;99.90;;;-1.78;100.00;102897.69;4994758;28;20101;-81
2024/02/18 02:50:02;;;;;;;28.90;4.78;;;-0.20;99.90;;;-1.77;100.00;102889.13;5006571;28;20039;-82
2024/02/18 02:52:28;;;;;;;42.17;5.80;;;-0.20;99.90;;;-1.79;100.00;102889.06;5004029;28;20722;-82
2024/02/18 02:54:54;;;;;;;30.92;5.40;;;-0.20;99.90;;;-1.83;100.00;102882.03;5004957;28;20038;-81
2024/02/18 02:57:20;;;;;;;21.58;5.25;;;-0.20;99.90;;;-1.82;100.00;102880.31;5005667;28;20033;-81
2024/02/18 02:59:47;;;;;;;17.35;6.00;;;-0.20;99.90;;;-1.82;100.00;102888.06;5002727;28;20635;-82
2024/02/18 03:02:20;;;;;;;25.42;4.43;;;-0.20;99.90;;;-1.83;100.00;102886.31;5006911;28;20041;-81
2024/02/18 03:04:46;;;;;;;8.10;4.63;;;-0.20;99.90;;;-1.85;100.00;102875.91;5004934;28;20083;-82
2024/02/18 03:07:12;;;;;;;12.07;4.25;;;-0.20;99.90;;;-1.84;100.00;102876.78;4999995;28;20030;-81
2024/02/18 03:09:37;;;;;;;45.28;4.82;;;-0.20;99.90;;;-1.83;100.00;102881.16;5008870;28;20026;-82
2024/02/18 03:12:09;;;;;;;51.08;5.65;;;-0.20;99.90;;;-1.86;100.00;102882.78;4988660;28;20038;-81
2024/02/18 03:14:35;;;;;;;174.50;7.47;;;-0.20;99.90;;;-1.93;100.00;102882.47;4988577;28;20034;-81
2024/02/18 03:17:01;;;;;;;31.55;2.83;;;-0.30;99.90;;;-2.02;100.00;102889.88;5010811;28;20139;-82
2024/02/18 03:19:26;;;;;;;28.63;3.53;;;-0.40;99.90;;;-2.11;100.00;102883.50;5002046;28;20381;-82
2024/02/18 03:21:55;;;;;;;18.05;4.70;;;-0.40;99.90;;;-2.12;100.00;102889.47;5007607;28;20403;-81
2024/02/18 03:24:28;;;;;;;7.57;4.10;;;-0.50;99.90;;;-2.10;100.00;102886.97;4994806;28;20053;-82
2024/02/18 03:26:54;;;;;;;8.75;5.28;;;-0.40;99.90;;;-2.08;100.00;102870.72;4998129;28;20382;-80
2024/02/18 03:29:20;;;;;;;9.85;5.40;;;-0.40;99.90;;;-2.01;100.00;102882.16;4995274;28;20030;-81
2024/02/18 03:31:46;;;;;;;10.65;5.53;;;-0.30;99.90;;;-1.94;100.00;102873.00;4994027;28;20036;-80
2024/02/18 03:34:11;;;;;;;15.77;6.03;;;-0.30;99.90;;;-1.89;100.00;102879.19;5008316;28;20092;-80
2024/02/18 03:36:47;;;;;;;13.45;6.78;;;-0.30;99.90;;;-1.91;100.00;102886.88;4988991;28;20022;-82
2024/02/18 03:39:13;;;;;;;;;;;0.00;99.90;;;-1.93;100.00;102901.44;5005094;28;20034;-81
2024/02/18 03:41:40;;;;;;;12.88;5.90;;;-0.30;99.90;;;-1.94;100.00;102894.50;5005430;28;19966;-82
2024/02/18 03:44:11;;;;;;;12.13;6.47;;;-0.30;99.90;;;-1.90;100.00;102890.34;5002066;28;20052;-81
2024/02/18 03:46:37;;;;;;;15.30;7.07;;;-0.30;99.90;;;-1.94;100.00;102884.19;5005993;28;20022;-82
2024/02/18 03:49:04;;;;;;;14.75;6.13;;;-0.20;99.90;;;-1.90;100.00;102880.91;5007144;28;20460;-81
2024/02/18 03:51:29;;;;;;;14.88;7.20;;;-0.20;99.90;;;-1.81;100.00;102890.72;4996311;28;20044;-82
2024/02/18 03:53:55;;;;;;;12.27;7.00;;;-0.10;99.90;;;-1.74;100.00;102876.34;4993328;28;20531;-81
2024/02/18 03:56:34;;;;;;;12.90;6.88;;;-0.10;99.90;;;-1.70;100.00;102880.81;5005694;28;20038;-81
2024/02/18 03:59:10;;;;;;;17.77;7.05;;;0.00;99.90;;;-1.67;100.00;102878.31;5008448;28;20060;-82
2024/02/18 04:01:35;;;;;;;12.50;6.47;;;0.00;99.90;;;-1.61;100.00;102881.16;5007806;28;20022;-81
2024/02/18 04:04:01;;;;;;;17.80;6.72;;;0.10;99.90;;;-1.53;100.00;102873.69;5003357;28;20129;-80
2024/02/18 04:06:35;;;;;;;16.42;7.00;;;0.10;99.90;;;-1.45;100.00;102868.00;5003344;28;20109;-82
2024/02/18 04:09:00;;;;;;;19.00;6.65;;;0.20;99.90;;;-1.38;100.00;102850.09;5004817;28;20117;-82
2024/02/18 04:11:26;;;;;;;19.00;7.43;;;0.30;99.90;;;-1.31;100.00;102849.53;5006131;28;20386;-82
2024/02/18 04:13:52;;;;;;;17.58;7.13;;;0.40;99.90;;;-1.23;100.00;102837.75;4989341;28;20088;-81
2024/02/18 04:16:18;;;;;;;26.63;7.03;;;0.40;99.90;;;-1.14;100.00;102835.50;5005302;28;20056;-82
2024/02/18 04:18:44;;;;;;;21.80;7.07;;;0.50;99.90;;;-1.07;100.00;102829.69;5022421;28;20032;-81
2024/02/18 04:21:19;;;;;;;29.30;7.28;;;0.50;99.90;;;-1.00;100.00;102840.25;5007302;28;20036;-82
2024/02/18 04:23:45;;;;;;;17.20;6.90;;;0.50;99.90;;;-0.99;100.00;102845.50;5006207;28;20045;-82
2024/02/18 04:26:11;;;;;;;23.73;7.18;;;0.60;99.90;;;-0.99;100.00;102840.31;5003795;28;20096;-82
2024/02/18 04:28:48;;;;;;;18.08;6.50;;;0.60;99.90;;;-0.99;100.00;102840.31;4990408;28;20032;-82
2024/02/18 04:31:14;;;;;;;23.48;6.93;;;;;;;-0.99;100.00;102847.19;4989771;28;20528;-82
2024/02/18 04:33:47;;;;;;;21.95;6.28;;;0.60;99.90;;;-1.00;100.00;102846.31;5021669;28;20032;-82
2024/02/18 04:36:13;;;;;;;27.05;6.95;;;0.60;99.90;;;-0.98;100.00;102851.53;5009102;28;20033;-81
2024/02/18 04:38:41;;;;;;;17.13;6.20;;;0.60;99.90;;;-1.01;100.00;102856.63;5024898;28;20029;-82
2024/02/18 04:41:07;;;;;;;19.52;6.80;;;0.60;99.90;;;-1.01;100.00;102851.44;5029154;28;20030;-82
2024/02/18 04:43:40;;;;;;;25.02;6.55;;;0.60;99.90;;;-1.05;100.00;102853.03;5016297;28;20037;-82
2024/02/18 04:46:06;;;;;;;18.65;6.20;;;0.60;99.90;;;-1.08;100.00;102865.84;5008115;28;20026;-82
2024/02/18 04:48:42;;;;;;;18.15;7.07;;;0.60;99.90;;;-1.07;100.00;102852.09;5024629;28;20033;-82
2024/02/18 04:51:08;;;;;;;19.92;6.70;;;0.50;99.90;;;-1.09;100.00;102851.16;5008727;28;20029;-82
2024/02/18 04:53:35;;;;;;;29.40;7.15;;;0.50;99.90;;;-1.11;100.00;102851.09;5010437;28;20042;-82
2024/02/18 04:56:00;;;;;;;19.10;7.43;;;0.50;99.90;;;-1.12;100.00;102848.50;5011836;28;20045;-82
2024/02/18 04:58:26;;;;;;;23.70;7.30;;;0.50;99.90;;;-1.07;100.00;102862.44;5010281;28;20036;-82
2024/02/18 05:01:02;;;;;;;28.52;7.90;;;0.50;99.90;;;-1.02;100.00;102852.25;5024521;28;20447;-82
2024/02/18 05:03:28;;;;;;;;;;;0.50;99.90;;;-1.04;100.00;102854.78;5027482;28;20072;-83
2024/02/18 05:05:53;;;;;;;28.10;6.93;;;0.50;99.90;;;-1.05;100.00;102853.91;5010358;28;19909;-82
2024/02/18 05:08:19;;;;;;;20.67;6.88;;;0.60;99.90;;;-1.04;100.00;102858.28;5026677;28;20098;-83
2024/02/18 05:10:54;;;;;;;22.98;7.18;;;0.60;99.90;;;-1.00;100.00;102863.53;5017614;28;20030;-81
2024/02/18 05:13:24;;;;;;;17.92;5.00;;;0.60;99.90;;;-1.06;100.00;102851.25;5007145;28;20033;-82
2024/02/18 05:16:12;;;;;;;12.02;4.45;;;0.50;99.90;;;-1.22;100.00;102857.59;5008428;28;20045;-82
2024/02/18 05:18:38;;;;;;;22.83;5.93;;;0.40;99.90;;;-1.31;100.00;102855.56;5008642;28;20088;-82
2024/02/18 05:21:05;;;;;;;22.05;6.63;;;0.30;99.90;;;-1.32;100.00;102845.16;5026769;28;20049;-81
2024/02/18 05:23:41;;;;;;;23.92;6.20;;;0.50;99.90;;;-1.30;100.00;102834.03;5009027;28;20036;-82
2024/02/18 05:26:10;;;;;;;21.60;7.18;;;0.40;99.90;;;-1.28;100.00;102841.88;5009987;28;20060;-83
2024/02/18 05:28:36;;;;;;;23.88;7.40;;;0.40;99.90;;;-1.22;100.00;102836.03;5016301;28;20033;-81
2024/02/18 05:31:23;;;;;;;20.75;7.35;;;0.40;99.90;;;-1.14;100.00;102835.50;5006840;28;20037;-82
2024/02/18 05:33:50;;;;;;;20.83;7.50;;;0.50;99.90;;;-1.08;100.00;102838.31;5025784;28;20042;-83
2024/02/18 05:36:17;;;;;;;27.52;7.07;;;0.50;99.90;;;-1.04;100.00;102840.16;5004429;28;20036;-82
2024/02/18 05:38:43;;;;;;;26.08;7.38;;;0.60;99.90;;;-0.97;100.00;102838.69;4992795;28;20038;-81
2024/02/18 05:41:32;;;;;;;26.73;7.00;;;0.70;99.90;;;-0.88;100.00;102841.56;5015008;28;20029;-83
2024/02/18 05:44:02;;;;;;;20.08;6.85;;;0.70;99.90;;;-0.84;100.00;102846.03;4939811;29;20079;-82
2024/02/18 05:46:33;;;;;;;31.15;7.40;;;0.80;99.90;;;-0.79;100.00;102853.06;4954139;29;20071;-83
2024/02/18 05:49:02;;;;;;;34.38;8.02;;;0.80;99.90;;;-0.76;100.00;102843.69;4938293;29;20043;-82
2024/02/18 05:51:54;;;;;;;34.60;7.70;;;0.80;99.90;;;-0.74;100.00;102836.00;4954833;29;20023;-82
2024/02/18 05:54:23;;;;;;;31.77;6.45;;;0.80;99.90;;;-0.73;100.00;102838.63;4941501;29;20051;-82
2024/02/18 05:56:50;;;;;;;28.35;7.03;;;;;;;-0.73;100.00;102836.03;4939489;29;20027;-82
2024/02/18 05:59:16;;;;;;;27.05;7.28;;;0.90;99.90;;;-0.73;100.00;102830.88;4954923;29;20128;-81
2024/02/18 06:02:02;;;;;;;22.65;6.28;;;0.90;99.90;;;-0.73;100.00;102830.88;4922889;29;20043;-82
2024/02/18 06:04:30;;;;;;;;;;;0.90;99.90;;;-0.77;100.00;102816.06;4954454;29;20038;-82
2024/02/18 06:06:59;;;;;;;28.20;6.43;;;0.80;99.90;;;-0.78;100.00;102816.88;4924671;29;20523;-82
2024/02/18 06:09:34;;;;;;;23.77;6.70;;;0.80;99.90;;;-0.77;100.00;102810.91;4937715;29;20047;-81
2024/02/18 06:12:02;;;;;;;24.75;6.72;;;0.80;99.90;;;-0.75;100.00;102801.47;4939473;29;20031;-82
2024/02/18 06:14:34;;;;;;;25.92;7.22;;;0.90;99.90;;;-0.70;100.00;102796.47;4921437;29;20063;-82
2024/02/18 06:17:03;;;;;;;27.00;7.18;;;0.90;99.90;;;-0.66;100.00;102793.16;4923614;29;20742;-82
2024/02/18 06:19:31;;;;;;;35.05;7.72;;;0.90;99.90;;;-0.65;100.00;102790.63;4938527;29;20533;-82
2024/02/18 06:22:03;;;;;;;27.13;6.80;;;0.90;99.90;;;-0.60;100.00;102783.00;4999933;28;20045;-82
2024/02/18 06:24:32;;;;;;;27.02;6.53;;;1.00;99.90;;;-0.59;100.00;102779.56;5014691;28;20099;-83
2024/02/18 06:27:06;;;;;;;20.90;5.88;;;1.00;99.90;;;-0.55;100.00;102777.97;5009304;28;20022;-82
2024/02/18 06:29:32;;;;;;;21.05;5.47;;;1.10;99.90;;;-0.49;100.00;102786.81;5023558;28;20018;-82
2024/02/18 06:31:58;;;;;;;30.65;6.20;;;1.10;99.90;;;-0.46;100.00;102793.78;5008407;28;20041;-83
2024/02/18 06:34:23;;;;;;;27.10;5.70;;;1.10;99.90;;;-0.44;100.00;102785.22;5058266;23;20051;-81
2024/02/18 06:36:49;;;;;;;28.13;5.72;;;1.20;99.90;;;-0.40;100.00;102773.28;5000669;28;20867;-82
2024/02/18 06:39:15;;;;;;;21.27;5.15;;;1.20;99.90;;;-0.38;100.00;102766.44;4987258;28;20034;-82
2024/02/18 06:41:48;;;;;;;23.73;5.13;;;1.20;99.90;;;-0.32;100.00;102766.63;5005225;28;20128;-82
2024/02/18 06:44:14;;;;;;;26.65;4.57;;;1.30;99.90;;;-0.28;100.00;102757.22;4991171;28;20034;-82
2024/02/18 06:46:40;;;;;;;23.13;4.35;;;1.30;99.90;;;-0.24;100.00;102765.16;4976619;28;20038;-82
2024/02/18 06:49:06;;;;;;;21.63;4.30;;;1.40;99.90;;;-0.18;100.00;102761.88;4963991;28;20499;-82
2024/02/18 06:51:31;;;;;;;16.13;3.95;;;1.40;99.90;;;-0.12;100.00;102764.66;4968882;28;20032;-82
2024/02/18 06:54:02;;;;;;;23.50;4.03;;;1.50;99.90;;;-0.06;100.00;102763.97;4983217;28;20051;-82
2024/02/18 06:56:28;;;;;;;21.08;4.68;;;1.50;99.90;;;0.01;100.00;102776.25;4990195;28;20042;-83
2024/02/18 06:58:53;;;;;;;13.75;2.90;;;1.60;99.90;;;0.04;100.00;102772.88;4970914;28;20033;-82
2024/02/18 07:01:19;;;;;;;11.55;3.08;;;1.60;99.90;;;0.06;100.00;102764.31;4982916;28;20149;-84
2024/02/18 07:03:46;;;;;;;21.35;3.35;;;1.70;99.90;;;0.10;100.00;102768.75;4977317;28;20035;-82
2024/02/18 07:06:12;;;;;;;13.70;3.20;;;1.70;99.90;;;0.16;100.00;102763.75;4986135;28;20125;-82
2024/02/18 07:08:42;;;;;;;21.85;3.90;;;1.80;99.90;;;0.25;100.00;102764.84;4975542;28;20031;-84
2024/02/18 07:11:08;;;;;;;21.35;3.40;;;1.80;99.90;;;0.28;100.00;102764.94;4968882;28;20022;-83
2024/02/18 07:13:34;;;;;;;15.30;3.08;;;1.90;99.90;;;0.31;100.00;102759.84;4986682;28;20587;-82
2024/02/18 07:16:00;;;;;;;21.98;3.63;;;1.90;99.90;;;0.36;100.00;102755.66;4969322;28;20045;-83
2024/02/18 07:18:26;;;;;;;14.52;3.25;;;2.00;99.90;;;0.44;100.00;102753.28;4975421;28;20101;-82
2024/02/18 07:20:52;;;;;;;21.45;3.35;;;2.00;99.90;;;0.46;100.00;102743.84;4971843;28;20113;-83
2024/02/18 07:23:22;;;;;;;17.35;3.53;;;2.00;99.90;;;0.48;100.00;102744.78;4972006;28;20052;-82
2024/02/18 07:25:48;;;;;;;12.82;2.92;;;2.00;99.90;;;0.52;100.00;102741.41;4990076;28;20038;-83
2024/02/18 07:28:15;;;;;;;12.57;3.08;;;2.10;99.90;;;0.54;100.00;102744.91;4967189;28;20084;-82
2024/02/18 07:30:41;;;;;;;17.42;2.50;;;2.10;99.90;;;0.54;100.00;102745.81;4977668;28;20104;-83
2024/02/18 07:33:13;;;;;;;10.00;2.30;;;2.10;99.90;;;0.53;100.00;102738.00;4973270;28;20073;-84
2024/02/18 07:35:40;;;;;;;20.60;3.20;;;2.20;99.90;;;0.60;100.00;102735.63;4997075;28;20022;-83
2024/02/18 07:38:06;;;;;;;15.05;3.08;;;2.20;99.90;;;0.60;100.00;102743.41;4990548;28;20423;-84
2024/02/18 07:40:31;;;;;;;12.15;2.55;;;2.20;99.90;;;0.61;100.00;102741.66;4992393;28;20029;-84
2024/02/18 07:42:57;;;;;;;9.50;1.88;;;2.20;99.90;;;0.61;100.00;102736.50;5004887;28;20505;-84
2024/02/18 07:45:23;;;;;;;8.10;1.60;;;2.20;99.90;;;0.61;100.00;102741.66;5004814;28;20073;-84
2024/02/18 07:48:00;;;;;;;15.63;1.88;;;;;;;0.63;100.00;102741.69;4994516;28;20080;-85
2024/02/18 07:50:26;;;;;;;7.85;1.75;;;2.20;99.90;;;0.67;100.00;102748.72;5000457;28;20564;-84
2024/02/18 07:52:52;;;;;;;14.77;2.70;;;2.30;99.90;;;0.72;100.00;102745.41;5004245;28;20029;-85
2024/02/18 07:55:28;;;;;;;16.13;4.72;;;2.40;99.90;;;0.83;100.00;102735.31;4995253;28;20030;-85
2024/02/18 07:57:54;;;;;;;38.50;11.57;;;2.40;99.90;;;0.90;100.00;102732.03;4991087;28;20022;-85
2024/02/18 08:00:44;;;;;;;47.28;15.00;;;2.40;99.90;;;0.96;100.00;102705.38;5000055;28;20030;-85
2024/02/18 08:03:10;;;;;;;20.63;5.75;;;2.50;99.90;;;1.01;100.00;102680.44;4982867;28;20042;-85
2024/02/18 08:05:36;;;;;;;13.68;2.85;;;2.60;99.90;;;1.07;100.00;102692.69;4986402;28;20030;-86
2024/02/18 08:08:02;;;;;;;11.75;2.00;;;2.60;99.90;;;1.06;100.00;102702.19;4986400;28;21351;-86
2024/02/18 08:10:51;;;;;;;15.30;3.25;;;2.60;99.90;;;1.05;100.00;102708.19;4987078;28;20022;-86
2024/02/18 08:13:22;;;;;;;10.95;1.90;;;2.60;99.90;;;1.03;100.00;102710.75;5016384;28;20116;-87
2024/02/18 08:16:13;;;;;;;14.50;2.45;;;2.60;99.90;;;1.10;100.00;102726.47;5000049;28;20254;-86
2024/02/18 08:18:42;;;;;;;13.90;2.58;;;;;;;1.14;100.00;102720.53;5011609;28;20030;-87
2024/02/18 08:21:17;;;;;;;9.32;1.80;;;2.70;99.90;;;1.17;100.00;102710.25;5011330;28;20034;-87
2024/02/18 08:23:43;;;;;;;19.52;2.22;;;;;;;1.21;100.00;102704.28;4995562;28;20022;-88
2024/02/18 08:26:36;;;;;;;;;;;;;;;;;;;;;
2024/02/18 08:32:16;;;;;;;12.48;2.47;;;2.90;99.90;;;1.42;100.00;102696.09;4972610;28;20039;-89
2024/02/18 08:35:14;;;;;;;16.55;2.55;;;;;;;1.55;100.00;102684.28;4953621;28;20152;-88
2024/02/18 08:41:37;;;;;;;10.10;2.33;;;3.30;99.90;;;1.78;100.00;102656.19;4906381;29;20063;-88
2024/02/18 08:47:14;;;;;;;11.45;2.50;;;3.40;99.90;;;1.97;100.00;102654.84;5043004;22;20054;-89
2024/02/18 08:50:05;;;;;;;13.15;2.28;;;3.50;99.90;;;2.06;100.00;102649.84;4937572;28;20042;-89
2024/02/18 08:52:46;;;;;;;15.05;2.40;;;;;;;2.18;100.00;102651.78;4975680;28;20037;-88
2024/02/18 08:55:15;;;;;;;27.35;2.60;;;;;;;2.33;100.00;102656.38;4957121;28;20046;-88
2024/02/18 08:58:06;;;;;;;11.80;2.28;;;3.80;99.90;;;2.49;100.00;102653.22;4959860;28;20098;-87
2024/02/18 09:00:34;;;;;;;9.80;1.60;;;;;;;2.50;100.00;102644.56;4941984;28;20055;-87
2024/02/18 09:03:25;;;;;;;14.57;1.52;;;4.00;99.90;;;2.54;100.00;102646.38;4956187;28;20038;-87
2024/02/18 09:05:52;;;;;;;10.63;1.50;;;4.00;99.90;;;2.50;100.00;102634.16;4936800;28;20078;-86
2024/02/18 09:11:11;;;;;;;22.02;2.30;;;4.10;99.90;;;2.55;100.00;102642.94;4964666;28;20177;-88
2024/02/18 09:13:54;;;;;;;13.25;2.17;;;4.10;99.90;;;2.65;100.00;102638.75;4936328;29;20035;-87
2024/02/18 09:16:57;;;;;;;;;;;;;;;;;;;;;
2024/02/18 09:19:56;;;;;;;6.20;1.80;;;;;;;2.87;100.00;102637.38;4970325;28;20035;-88
2024/02/18 09:22:22;;;;;;;10.38;2.05;;;;;;;2.88;100.00;102628.72;4955773;28;20046;-88
2024/02/18 09:24:51;;;;;;;10.40;2.05;;;4.40;99.90;;;2.91;100.00;102627.91;4955072;28;20492;-88
2024/02/18 09:28:30;;;;;;;11.82;2.10;;;4.40;99.90;;;3.01;100.00;102622.84;4941972;28;20134;-88
2024/02/18 09:31:30;;;;;;;12.02;2.67;;;4.60;99.90;;;3.14;100.00;102615.25;4833574;29;20046;-88
2024/02/18 09:37:06;;;;;;;10.75;2.55;;;4.70;99.90;;;3.32;100.00;102622.44;4794219;29;20046;-90
2024/02/18 09:39:47;;;;;;;17.98;2.70;;;;;;;3.39;100.00;102621.66;4758756;30;20130;-89
2024/02/18 09:43:07;;;;;;;14.15;2.72;;;4.90;99.90;;;3.38;100.00;102623.38;4741093;30;20502;-88
2024/02/18 09:46:38;;;;;;;;;;;;;;;;;;;;;
2024/02/18 09:49:05;;;;;;;17.38;2.63;;;5.00;99.90;;;3.51;100.00;102621.81;4716709;30;20080;-87
2024/02/18 09:52:26;;;;;;;;;;;;;;;;;;;;;
2024/02/18 09:54:57;;;;;;;14.02;2.05;;;5.20;99.90;;;3.74;100.00;102616.91;4720671;30;20190;-87
2024/02/18 09:57:23;;;;;;;14.15;2.15;;;5.20;99.90;;;3.82;100.00;102625.69;4707325;30;20045;-88
2024/02/18 10:00:14;;;;;;;13.45;2.35;;;5.30;99.90;;;3.92;100.00;102613.63;4744001;30;20101;-88
2024/02/18 10:02:54;;;;;;;10.50;2.25;;;;;;;4.01;100.00;102618.06;4757423;30;20044;-88
2024/02/18 10:05:45;;;;;;;14.38;2.30;;;5.50;99.90;;;4.10;100.00;102612.94;4757110;30;20047;-87
2024/02/18 10:08:14;;;;;;;18.25;4.28;;;5.50;99.90;;;4.11;100.00;102591.25;4808194;29;20467;-87
2024/02/18 10:11:23;;;;;;;17.35;2.25;;;5.60;99.90;;;4.24;100.00;102603.53;4826491;29;20039;-87
2024/02/18 10:14:05;;;;;;;14.05;2.42;;;;;;;4.31;100.00;102604.47;4861262;29;20495;-87
2024/02/18 10:17:17;;;;;;;16.23;2.95;;;5.80;99.90;;;4.40;100.00;102594.13;4914094;29;20503;-87
2024/02/18 10:19:26;;;;;;;16.88;2.80;;;5.80;99.90;;;4.44;100.00;102588.06;4899668;29;20158;-87
2024/02/18 10:24:45;;;;;;;13.07;2.38;;;6.00;99.90;;;4.64;100.00;102574.31;4973301;28;20045;-86
2024/02/18 10:27:11;;;;;;;13.60;2.33;;;;;;;4.70;100.00;102561.31;5027866;28;20032;-87
2024/02/18 10:29:48;;;;;;;;;;;;;;;;;;;;;
2024/02/18 10:32:41;;;;;;;7.68;1.75;;;;;;;4.88;100.00;102545.78;5018404;28;20034;-86
2024/02/18 10:35:08;;;;;;;16.90;2.28;;;6.30;99.90;;;4.95;100.00;102546.69;5012867;28;20120;-86
2024/02/18 10:37:47;;;;;;;16.23;2.40;;;6.40;99.90;;;5.08;100.00;102542.41;5013789;28;20500;-86
2024/02/18 10:40:50;;;;;;;14.80;2.78;;;6.50;99.90;;;5.14;100.00;102521.56;5018159;28;20044;-85
2024/02/18 10:43:26;;;;;;;15.60;2.40;;;6.50;99.90;;;5.19;100.00;102518.97;5021532;28;20033;-85
2024/02/18 10:45:54;;;;;;;14.25;2.20;;;6.60;99.90;;;5.21;99.04;102514.63;5012196;28;20025;-86
2024/02/18 10:48:31;;;;;;;11.57;1.90;;;6.60;99.90;;;5.25;97.84;102516.38;4997380;28;20037;-86
2024/02/18 10:51:02;;;;;;;26.67;3.10;;;6.60;99.90;;;5.28;97.04;102498.97;5024285;28;20025;-85
2024/02/18 10:54:27;;;;;;;10.73;2.00;;;6.70;99.90;;;5.34;96.33;102495.50;5029180;28;20038;-85
2024/02/18 10:57:01;;;;;;;15.68;2.33;;;6.70;99.90;;;5.37;95.69;102490.28;5014307;28;20037;-85
2024/02/18 11:00:13;;;;;;;16.17;2.45;;;6.80;99.90;;;5.49;95.78;102490.34;5020508;28;20116;-82